Time;durP1;ratioP1;P1;durP2;ratioP2;P2;SDS_P1;SDS_P2;PMS_P1;PMS_P2;Temp;Humidity;BMP_temperature;BMP_pressure;BME280_temperature;BME280_humidity;BME280_pressure;Samples;Min_cycle;Max_cycle;Signal;HPM_P1;HPM_P2
2023/08/17 00:00:53;;;;;;;5.85;3.53;;;;;;;-145.69;nan;51891.88;5113462;28;20212;-83
2023/08/17 00:03:21;;;;;;;10.05;3.92;;;;;;;-145.69;nan;51878.03;5113265;28;20207;-83
2023/08/17 00:05:48;;;;;;;4.50;3.40;;;;;;;-145.69;nan;51880.00;5113338;28;20193;-84
2023/08/17 00:08:14;;;;;;;7.35;4.45;;;;;;;-145.69;nan;51887.94;5113469;28;20197;-84
2023/08/17 00:10:41;;;;;;;11.90;4.38;;;;;;;-145.69;nan;51874.06;5113403;28;20200;-83
2023/08/17 00:13:07;;;;;;;6.80;3.63;;;;;;;-145.69;nan;51862.19;5113170;28;20236;-82
2023/08/17 00:15:34;;;;;;;7.68;4.30;;;;;;;-145.69;nan;51889.91;5112972;28;20197;-82
2023/08/17 00:18:00;;;;;;;7.18;3.97;;;;;;;-145.69;nan;51856.25;5112935;28;20288;-82
2023/08/17 00:20:28;;;;;;;9.15;4.55;;;;;;;-145.69;nan;51854.28;5113275;28;20212;-83
2023/08/17 00:22:54;;;;;;;6.22;3.72;;;;;;;-145.69;nan;51874.06;5113242;28;20205;-83
2023/08/17 00:25:21;;;;;;;6.95;3.95;;;;;;;-145.69;nan;51891.88;5113246;28;20211;-82
2023/08/17 00:27:47;;;;;;;6.82;4.35;;;;;;;-145.69;nan;51887.94;5112994;28;20201;-82
2023/08/17 00:30:14;;;;;;;8.50;4.50;;;;;;;-145.69;nan;51913.69;5113041;28;20190;-83
2023/08/17 00:32:41;;;;;;;8.98;4.32;;;;;;;-145.69;nan;51874.06;5112929;28;20200;-83
2023/08/17 00:35:08;;;;;;;15.82;4.25;;;;;;;-145.69;nan;51883.97;5113123;28;20202;-82
2023/08/17 00:37:36;;;;;;;10.98;3.72;;;;;;;-145.69;nan;51868.13;5112787;28;20197;-84
2023/08/17 00:40:04;;;;;;;7.68;4.25;;;;;;;-145.69;nan;51858.22;5112783;28;20209;-83
2023/08/17 00:42:30;;;;;;;6.60;3.95;;;;;;;-145.69;nan;51901.78;5115059;28;20205;-83
2023/08/17 00:44:57;;;;;;;6.57;4.18;;;;;;;-145.69;nan;51897.84;5117020;28;20285;-83
2023/08/17 00:47:23;;;;;;;12.75;4.47;;;;;;;-145.69;nan;51870.13;5117118;28;20652;-82
2023/08/17 00:49:50;;;;;;;8.05;3.78;;;;;;;-145.69;nan;51876.06;5117178;28;20209;-83
2023/08/17 00:52:16;;;;;;;10.48;4.55;;;;;;;-145.69;nan;51862.19;5117260;28;20197;-82
2023/08/17 00:54:44;;;;;;;5.32;3.95;;;;;;;-145.69;nan;51858.22;5116744;28;20221;-82
2023/08/17 00:57:11;;;;;;;5.88;4.75;;;;;;;-145.69;nan;51878.03;5117055;28;20201;-83
2023/08/17 00:59:37;;;;;;;11.98;4.78;;;;;;;-145.69;nan;51889.91;5116946;28;20591;-83
2023/08/17 01:02:05;;;;;;;5.80;4.35;;;;;;;-145.69;nan;51919.63;5116866;28;20203;-84
2023/08/17 01:04:32;;;;;;;10.35;5.68;;;;;;;-145.69;nan;51866.16;5116522;28;20225;-83
2023/08/17 01:06:59;;;;;;;7.30;4.78;;;;;;;-145.69;nan;51878.03;5116718;28;20194;-83
2023/08/17 01:09:25;;;;;;;5.13;4.35;;;;;;;-145.69;nan;51891.88;5116863;28;20204;-82
2023/08/17 01:12:01;;;;;;;6.75;4.60;;;;;;;-145.69;nan;51870.13;5116386;28;20209;-83
2023/08/17 01:14:33;;;;;;;5.32;3.85;;;;;;;-145.69;nan;51893.88;5116542;28;20229;-84
2023/08/17 01:17:07;;;;;;;6.97;4.63;;;;;;;-145.69;nan;51878.03;5115921;28;20648;-84
2023/08/17 01:19:34;;;;;;;5.47;4.38;;;;;;;-145.69;nan;51858.22;5112765;28;20194;-83
2023/08/17 01:22:04;;;;;;;11.93;5.75;;;;;;;-145.69;nan;51891.88;5116066;28;20194;-83
2023/08/17 01:24:32;;;;;;;8.50;4.70;;;;;;;-145.69;nan;51893.88;5116423;28;20208;-83
2023/08/17 01:26:58;;;;;;;10.77;5.05;;;;;;;-145.69;nan;51907.72;5116531;28;20231;-83
2023/08/17 01:29:25;;;;;;;7.22;4.53;;;;;;;-145.69;nan;51872.09;5116412;28;20674;-84
2023/08/17 01:31:59;;;;;;;6.97;4.95;;;;;;;-145.69;nan;51882.00;5115161;27;20682;-83
2023/08/17 01:34:28;;;;;;;8.98;5.05;;;;;;;-145.69;nan;51878.03;5115566;28;20225;-83
2023/08/17 01:36:58;;;;;;;10.45;5.20;;;;;;;-145.69;nan;51868.13;5116186;28;20247;-83
2023/08/17 01:39:28;;;;;;;12.10;6.20;;;;;;;-145.69;nan;51852.28;5116304;28;20560;-83
2023/08/17 01:41:59;;;;;;;7.82;5.47;;;;;;;-145.69;nan;51901.78;5116193;28;20266;-83
2023/08/17 01:44:27;;;;;;;6.53;4.68;;;;;;;-145.69;nan;51885.94;5115715;28;20189;-84
2023/08/17 01:46:54;;;;;;;9.05;5.20;;;;;;;-145.69;nan;51876.06;5115795;28;20284;-83
2023/08/17 01:49:20;;;;;;;10.85;5.20;;;;;;;-145.69;nan;51872.09;5115779;28;20197;-83
2023/08/17 01:51:47;;;;;;;8.25;4.65;;;;;;;-145.69;nan;51882.00;5115894;28;20197;-83
2023/08/17 01:54:13;;;;;;;10.10;5.50;;;;;;;-145.69;nan;51907.72;5115019;28;20260;-84
2023/08/17 01:56:40;;;;;;;8.75;5.43;;;;;;;-145.69;nan;51874.06;5116045;28;20229;-85
2023/08/17 01:59:08;;;;;;;6.68;5.18;;;;;;;-145.69;nan;51874.06;5115938;28;20201;-83
2023/08/17 02:01:34;;;;;;;5.55;4.25;;;;;;;-145.69;nan;51889.91;5115757;28;20197;-83
2023/08/17 02:04:02;;;;;;;6.07;4.43;;;;;;;-145.69;nan;51885.94;5115648;28;20202;-83
2023/08/17 02:06:28;;;;;;;11.93;4.82;;;;;;;-145.69;nan;51889.91;5115524;28;20280;-84
2023/08/17 02:08:55;;;;;;;6.40;5.03;;;;;;;-145.69;nan;51905.75;5115874;28;20281;-83
2023/08/17 02:11:21;;;;;;;9.43;5.43;;;;;;;-145.69;nan;51895.84;5115592;28;20205;-83
2023/08/17 02:13:48;;;;;;;8.45;5.75;;;;;;;-145.69;nan;51883.97;5115264;28;20229;-83
2023/08/17 02:16:16;;;;;;;8.32;5.20;;;;;;;-145.69;nan;51885.94;5115415;28;20198;-83
2023/08/17 02:18:42;;;;;;;5.80;4.80;;;;;;;-145.69;nan;51862.19;5115136;28;20202;-83
2023/08/17 02:21:10;;;;;;;8.55;5.15;;;;;;;-145.69;nan;51880.00;5115370;28;20660;-84
2023/08/17 02:23:36;;;;;;;8.30;5.00;;;;;;;-145.69;nan;51885.94;5115271;28;20204;-84
2023/08/17 02:26:03;;;;;;;12.45;5.10;;;;;;;-145.69;nan;51882.00;5115076;28;20252;-83
2023/08/17 02:28:29;;;;;;;8.05;4.82;;;;;;;-145.69;nan;51893.88;5115416;28;20198;-83
2023/08/17 02:30:57;;;;;;;8.00;4.70;;;;;;;-145.69;nan;51907.72;5115203;28;20197;-83
2023/08/17 02:33:25;;;;;;;6.90;4.90;;;;;;;-145.69;nan;51897.84;5115098;28;20217;-84
2023/08/17 02:35:52;;;;;;;7.65;5.05;;;;;;;-145.69;nan;51909.72;5114923;28;20204;-83
2023/08/17 02:38:19;;;;;;;8.07;5.05;;;;;;;-145.69;nan;51891.88;5113749;28;20667;-83
2023/08/17 02:40:50;;;;;;;8.70;4.78;;;;;;;-145.69;nan;51882.00;5115224;28;20204;-84
2023/08/17 02:43:16;;;;;;;10.80;4.57;;;;;;;-145.69;nan;51909.72;5115100;28;20191;-85
2023/08/17 02:45:59;;;;;;;9.65;4.18;;;;;;;-145.69;nan;51885.94;5114834;28;20204;-83
2023/08/17 02:48:27;;;;;;;9.05;4.65;;;;;;;-145.69;nan;51878.03;5115089;28;20202;-84
2023/08/17 02:50:53;;;;;;;11.82;5.15;;;;;;;-145.69;nan;51907.72;5115011;28;20284;-84
2023/08/17 02:53:20;;;;;;;11.82;5.40;;;;;;;-145.69;nan;51911.69;5114340;28;20197;-83
2023/08/17 02:55:46;;;;;;;8.65;4.93;;;;;;;-145.69;nan;51905.75;5114767;28;20202;-83
2023/08/17 02:58:13;;;;;;;7.57;5.30;;;;;;;-145.69;nan;51889.91;5114443;28;20236;-83
2023/08/17 03:00:39;;;;;;;9.65;5.10;;;;;;;-145.69;nan;51870.13;5114807;28;20207;-84
2023/08/17 03:03:06;;;;;;;6.78;4.50;;;;;;;-145.69;nan;51909.72;5114414;28;20228;-84
2023/08/17 03:05:34;;;;;;;8.63;5.05;;;;;;;-145.69;nan;51921.59;5113435;28;20208;-84
2023/08/17 03:08:00;;;;;;;12.63;5.03;;;;;;;-145.69;nan;51878.03;5114619;28;20205;-84
2023/08/17 03:10:27;;;;;;;9.75;4.88;;;;;;;-145.69;nan;51909.72;5114654;28;20203;-84
2023/08/17 03:12:54;;;;;;;6.60;5.28;;;;;;;-145.69;nan;51917.63;5114096;28;20201;-84
2023/08/17 03:15:20;;;;;;;6.93;4.55;;;;;;;-145.69;nan;51905.75;5114527;28;20248;-84
2023/08/17 03:17:47;;;;;;;6.97;4.85;;;;;;;-145.69;nan;51909.72;5114606;28;20553;-84
2023/08/17 03:20:13;;;;;;;9.35;4.70;;;;;;;-145.69;nan;51883.97;5114385;28;20240;-83
2023/08/17 03:22:41;;;;;;;7.50;4.40;;;;;;;-145.69;nan;51923.56;5112571;28;20556;-84
2023/08/17 03:25:09;;;;;;;13.05;4.65;;;;;;;-145.69;nan;51901.78;5114284;28;20189;-85
2023/08/17 03:27:35;;;;;;;12.15;4.45;;;;;;;-145.69;nan;51887.94;5113938;28;20213;-83
2023/08/17 03:30:02;;;;;;;7.63;4.47;;;;;;;-145.69;nan;51893.88;5114179;27;20202;-84
2023/08/17 03:32:28;;;;;;;6.68;4.40;;;;;;;-145.69;nan;51907.72;5113779;28;20198;-84
2023/08/17 03:34:55;;;;;;;11.32;5.00;;;;;;;-145.69;nan;51903.78;5113970;28;20715;-84
2023/08/17 03:37:20;;;;;;;6.80;5.18;;;;;;;-145.69;nan;51885.94;5113961;28;20201;-83
2023/08/17 03:39:48;;;;;;;8.38;5.43;;;;;;;-145.69;nan;51911.69;5113512;28;20204;-83
2023/08/17 03:42:15;;;;;;;6.60;4.97;;;;;;;-145.69;nan;51889.91;5113667;28;20201;-83
2023/08/17 03:44:41;;;;;;;9.70;5.18;;;;;;;-145.69;nan;51919.63;5114245;28;20211;-85
2023/08/17 03:47:08;;;;;;;7.40;4.93;;;;;;;-145.69;nan;51907.72;5096280;28;20200;-84
2023/08/17 03:49:34;;;;;;;11.27;4.95;;;;;;;-145.69;nan;51911.69;5114067;28;20198;-84
2023/08/17 03:52:01;;;;;;;13.50;5.07;;;;;;;-145.69;nan;51927.53;5113356;28;20197;-85
2023/08/17 03:54:27;;;;;;;6.85;5.07;;;;;;;-145.69;nan;51885.94;5114016;28;20249;-85
2023/08/17 03:56:55;;;;;;;8.05;4.70;;;;;;;-145.69;nan;51897.84;5113434;28;20208;-85
2023/08/17 03:59:22;;;;;;;6.22;4.22;;;;;;;-145.69;nan;51889.91;5113381;28;20660;-84
2023/08/17 04:01:48;;;;;;;5.70;4.50;;;;;;;-145.69;nan;51903.78;5113383;28;20193;-84
2023/08/17 04:04:15;;;;;;;13.10;4.60;;;;;;;-145.69;nan;51931.50;5113660;28;20200;-84
2023/08/17 04:06:41;;;;;;;5.30;4.30;;;;;;;-145.69;nan;51939.41;5113030;28;20666;-85
2023/08/17 04:09:08;;;;;;;8.10;4.75;;;;;;;-145.69;nan;51911.69;5113041;28;20197;-84
2023/08/17 04:11:36;;;;;;;6.88;4.70;;;;;;;-145.69;nan;51899.81;5113482;28;20215;-84
2023/08/17 04:14:05;;;;;;;7.20;5.35;;;;;;;-145.69;nan;51931.50;5112939;28;20229;-85
2023/08/17 04:16:31;;;;;;;7.22;4.43;;;;;;;-145.69;nan;51893.88;5113010;28;20204;-84
2023/08/17 04:18:58;;;;;;;12.40;4.57;;;;;;;-145.69;nan;51882.00;5113375;28;20197;-84
2023/08/17 04:21:24;;;;;;;10.73;5.15;;;;;;;-145.69;nan;51885.94;5113311;28;20197;-84
2023/08/17 04:23:51;;;;;;;10.20;5.25;;;;;;;-145.69;nan;51909.72;5112989;28;20200;-84
2023/08/17 04:26:17;;;;;;;10.57;5.18;;;;;;;-145.69;nan;51905.75;5113257;28;20189;-84
2023/08/17 04:28:44;;;;;;;6.00;4.07;;;;;;;-145.69;nan;51901.78;5113425;28;20225;-84
2023/08/17 04:31:12;;;;;;;8.40;4.43;;;;;;;-145.69;nan;51878.03;5113286;28;20202;-84
2023/08/17 04:33:39;;;;;;;5.70;4.20;;;;;;;-145.69;nan;51933.47;5113091;28;20560;-84
2023/08/17 04:36:06;;;;;;;6.30;4.20;;;;;;;-145.69;nan;51901.78;5112938;28;20225;-84
2023/08/17 04:38:32;;;;;;;7.00;4.30;;;;;;;-145.69;nan;51901.78;5113237;28;20208;-83
2023/08/17 04:40:59;;;;;;;5.10;4.03;;;;;;;-145.69;nan;51893.88;5112954;28;20193;-84
2023/08/17 04:43:25;;;;;;;7.35;4.68;;;;;;;-145.69;nan;51883.97;5113001;28;20205;-84
2023/08/17 04:45:52;;;;;;;10.13;5.10;;;;;;;-145.69;nan;51915.66;5113208;28;20525;-84
2023/08/17 04:48:20;;;;;;;7.10;4.47;;;;;;;-145.69;nan;51905.75;5113063;28;20205;-84
2023/08/17 04:50:47;;;;;;;13.27;5.32;;;;;;;-145.69;nan;51917.63;5113070;28;20197;-85
2023/08/17 04:53:13;;;;;;;5.20;4.65;;;;;;;-145.69;nan;51921.59;5113043;28;20258;-84
2023/08/17 04:55:40;;;;;;;6.60;4.70;;;;;;;-145.69;nan;51903.78;5112489;28;20738;-84
2023/08/17 04:58:06;;;;;;;5.72;4.68;;;;;;;-145.69;nan;51903.78;5112866;28;20675;-82
2023/08/17 05:00:33;;;;;;;7.10;4.57;;;;;;;-145.69;nan;51913.69;5112898;28;20679;-84
2023/08/17 05:03:00;;;;;;;5.70;4.45;;;;;;;-145.69;nan;51917.63;5112486;28;20255;-84
2023/08/17 05:05:27;;;;;;;10.30;5.60;;;;;;;-145.69;nan;51874.06;5112802;28;20197;-84
2023/08/17 05:07:54;;;;;;;11.23;5.47;;;;;;;-145.69;nan;51887.94;5113063;28;20201;-83
2023/08/17 05:10:21;;;;;;;7.57;4.60;;;;;;;-145.69;nan;51929.50;5112710;28;20555;-84
2023/08/17 05:12:47;;;;;;;6.82;4.55;;;;;;;-145.69;nan;51945.34;5112524;28;20281;-84
2023/08/17 05:15:14;;;;;;;10.02;4.80;;;;;;;-145.69;nan;51897.84;5112051;28;20233;-84
2023/08/17 05:17:41;;;;;;;11.50;5.10;;;;;;;-145.69;nan;51901.78;5112752;28;20217;-84
2023/08/17 05:20:09;;;;;;;5.10;4.03;;;;;;;-145.69;nan;51905.75;5112854;28;20202;-83
2023/08/17 05:22:36;;;;;;;6.25;4.70;;;;;;;-145.69;nan;51891.88;5110076;28;20235;-83
2023/08/17 05:25:04;;;;;;;6.78;4.28;;;;;;;-145.69;nan;51899.81;5111970;28;20204;-84
2023/08/17 05:27:30;;;;;;;7.53;4.43;;;;;;;-145.69;nan;51933.47;5128496;28;20711;-84
2023/08/17 05:29:57;;;;;;;6.18;4.22;;;;;;;-145.69;nan;51893.88;5135088;27;20204;-83
2023/08/17 05:32:23;;;;;;;5.57;3.97;;;;;;;-145.69;nan;51880.00;5101739;28;20641;-83
2023/08/17 05:34:50;;;;;;;5.25;4.38;;;;;;;-145.69;nan;51907.72;5095781;28;20222;-83
2023/08/17 05:37:22;;;;;;;5.07;3.92;;;;;;;-145.69;nan;51889.91;5096090;28;20198;-83
2023/08/17 05:39:50;;;;;;;5.82;4.32;;;;;;;-145.69;nan;51885.94;5095653;28;20202;-82
2023/08/17 05:42:16;;;;;;;6.80;4.55;;;;;;;-145.69;nan;51901.78;5114619;28;20518;-83
2023/08/17 05:44:43;;;;;;;7.10;4.75;;;;;;;-145.69;nan;51880.00;5116065;28;20689;-83
2023/08/17 05:47:09;;;;;;;5.88;4.75;;;;;;;-145.69;nan;51883.97;5116156;28;20207;-82
2023/08/17 05:49:37;;;;;;;7.00;5.03;;;;;;;-145.69;nan;51891.88;5115405;28;20190;-83
2023/08/17 05:52:04;;;;;;;7.88;4.88;;;;;;;-145.69;nan;51868.13;5115834;28;20189;-83
2023/08/17 05:54:31;;;;;;;6.13;4.85;;;;;;;-145.69;nan;51876.06;5115596;28;20710;-84
2023/08/17 05:56:58;;;;;;;6.38;4.95;;;;;;;-145.69;nan;51870.13;5115966;28;20199;-84
2023/08/17 05:59:25;;;;;;;10.13;5.32;;;;;;;-145.69;nan;51870.13;5115447;28;20564;-84
2023/08/17 06:01:52;;;;;;;8.07;5.45;;;;;;;-145.69;nan;51882.00;5115519;28;20201;-82
2023/08/17 06:04:19;;;;;;;9.70;5.18;;;;;;;-145.69;nan;51883.97;5115812;28;20193;-84
2023/08/17 06:06:46;;;;;;;7.82;5.95;;;;;;;-145.69;nan;51895.84;5115636;28;20240;-83
2023/08/17 06:09:13;;;;;;;9.07;5.55;;;;;;;-145.69;nan;51897.84;5115390;28;20197;-83
2023/08/17 06:11:40;;;;;;;6.32;5.07;;;;;;;-145.69;nan;51848.34;5115446;28;20202;-83
2023/08/17 06:14:07;;;;;;;8.20;5.68;;;;;;;-145.69;nan;51854.28;5115455;28;20233;-83
2023/08/17 06:16:35;;;;;;;10.82;6.28;;;;;;;-145.69;nan;51856.25;5115233;28;20688;-83
2023/08/17 06:19:01;;;;;;;8.30;5.25;;;;;;;-145.69;nan;51852.28;5115074;28;20652;-82
2023/08/17 06:21:28;;;;;;;10.93;5.50;;;;;;;-145.69;nan;51872.09;5115910;28;20212;-83
2023/08/17 06:23:54;;;;;;;7.32;5.00;;;;;;;-145.69;nan;51850.31;5115376;28;20200;-83
2023/08/17 06:26:21;;;;;;;7.85;5.47;;;;;;;-145.69;nan;51883.97;5115225;28;20660;-83
2023/08/17 06:28:47;;;;;;;7.63;5.75;;;;;;;-145.69;nan;51864.16;5115099;28;20208;-83
2023/08/17 06:31:16;;;;;;;7.82;5.63;;;;;;;-145.69;nan;51836.44;5115633;28;20193;-83
2023/08/17 06:33:43;;;;;;;8.27;5.80;;;;;;;-145.69;nan;51834.47;5115566;28;20204;-83
2023/08/17 06:36:13;;;;;;;8.23;5.60;;;;;;;-145.69;nan;51862.19;5115186;28;20232;-83
2023/08/17 06:38:39;;;;;;;7.53;5.57;;;;;;;-145.69;nan;51880.00;5115190;28;20652;-83
2023/08/17 06:41:06;;;;;;;8.07;5.50;;;;;;;-145.69;nan;51852.28;5114738;28;20568;-83
2023/08/17 06:43:32;;;;;;;8.45;5.40;;;;;;;-145.69;nan;51870.13;5115497;28;20203;-83
2023/08/17 06:46:00;;;;;;;7.78;5.18;;;;;;;-145.69;nan;51842.38;5115677;28;20201;-84
2023/08/17 06:48:28;;;;;;;7.13;4.90;;;;;;;-145.69;nan;51834.47;5115506;28;20293;-84
2023/08/17 06:50:54;;;;;;;11.15;5.20;;;;;;;-145.69;nan;51846.34;5116970;28;20229;-84
2023/08/17 06:53:21;;;;;;;11.68;5.55;;;;;;;-145.69;nan;51842.38;5116487;28;20197;-84
2023/08/17 06:55:47;;;;;;;6.68;5.13;;;;;;;-145.69;nan;51844.38;5116663;28;20229;-83
2023/08/17 06:58:14;;;;;;;6.32;5.25;;;;;;;-145.69;nan;51868.13;5116973;28;20606;-83
2023/08/17 07:00:41;;;;;;;5.85;4.40;;;;;;;-145.69;nan;51818.63;5115792;28;20193;-84
2023/08/17 07:03:07;;;;;;;6.68;4.88;;;;;;;-145.69;nan;51826.56;5115959;28;20203;-84
2023/08/17 07:05:35;;;;;;;6.55;4.10;;;;;;;-145.69;nan;51814.66;5116187;28;20652;-83
2023/08/17 07:08:02;;;;;;;6.90;4.85;;;;;;;-145.69;nan;51850.31;5115686;28;20287;-84
2023/08/17 07:10:28;;;;;;;5.78;4.35;;;;;;;-145.69;nan;51806.75;5117026;28;20232;-84
2023/08/17 07:12:55;;;;;;;6.13;4.60;;;;;;;-145.69;nan;51856.25;5114851;28;20194;-84
2023/08/17 07:15:21;;;;;;;6.20;4.07;;;;;;;-145.69;nan;51822.59;5116949;28;20296;-84
2023/08/17 07:17:48;;;;;;;9.07;4.82;;;;;;;-145.69;nan;51830.50;5116704;28;20199;-84
2023/08/17 07:20:16;;;;;;;8.27;4.75;;;;;;;-145.69;nan;51822.59;5116112;28;20204;-84
2023/08/17 07:22:44;;;;;;;5.18;3.88;;;;;;;-145.69;nan;51834.47;5115343;28;20198;-84
2023/08/17 07:25:10;;;;;;;6.10;4.20;;;;;;;-145.69;nan;51834.47;5114619;28;20209;-85
2023/08/17 07:27:37;;;;;;;7.00;4.15;;;;;;;-145.69;nan;51814.66;5125787;27;20205;-84
2023/08/17 07:30:04;;;;;;;6.07;3.88;;;;;;;-145.69;nan;51822.59;5135481;27;20197;-85
2023/08/17 07:32:31;;;;;;;6.45;4.00;;;;;;;-145.69;nan;51808.72;5115532;27;20189;-85
2023/08/17 07:34:57;;;;;;;6.88;4.10;;;;;;;-145.69;nan;51798.81;5129961;27;20272;-85
2023/08/17 07:37:24;;;;;;;7.32;3.80;;;;;;;-145.69;nan;51771.09;5114027;28;20205;-84
2023/08/17 07:39:51;;;;;;;7.45;3.90;;;;;;;-145.69;nan;51790.91;5113903;28;20201;-84
2023/08/17 07:42:18;;;;;;;5.03;3.97;;;;;;;-145.69;nan;51810.72;5096504;28;20205;-84
2023/08/17 07:44:44;;;;;;;6.45;4.03;;;;;;;-145.69;nan;51796.84;5097376;28;20219;-84
2023/08/17 07:47:11;;;;;;;5.97;3.72;;;;;;;-145.69;nan;51775.06;5114047;28;20203;-84
2023/08/17 07:49:42;;;;;;;4.93;3.88;;;;;;;-145.69;nan;51796.84;5114855;28;20288;-83
2023/08/17 07:52:09;;;;;;;5.53;3.88;;;;;;;-145.69;nan;51792.88;5114337;28;20260;-84
2023/08/17 07:54:37;;;;;;;7.03;3.67;;;;;;;-145.69;nan;51786.94;5114609;28;20205;-83
2023/08/17 07:57:05;;;;;;;6.53;3.80;;;;;;;-145.69;nan;51765.16;5114772;28;20235;-83
2023/08/17 07:59:32;;;;;;;4.10;3.17;;;;;;;-145.69;nan;51773.09;5115507;28;20664;-84
2023/08/17 08:02:01;;;;;;;7.15;3.78;;;;;;;-145.69;nan;51783.00;5115611;28;20243;-83
2023/08/17 08:04:29;;;;;;;6.78;4.28;;;;;;;-145.69;nan;51755.25;5114183;28;20204;-84
2023/08/17 08:06:59;;;;;;;5.15;3.47;;;;;;;-145.69;nan;51783.00;5113849;28;20660;-84
2023/08/17 08:09:25;;;;;;;5.82;3.78;;;;;;;-145.69;nan;51777.03;5112017;28;20189;-83
2023/08/17 08:11:55;;;;;;;4.38;3.45;;;;;;;-145.69;nan;51802.78;5113295;28;20204;-83
2023/08/17 08:14:23;;;;;;;7.18;3.55;;;;;;;-145.69;nan;51749.31;5113201;28;20229;-81
2023/08/17 08:16:52;;;;;;;4.13;2.97;;;;;;;-145.69;nan;51771.09;5113115;28;20240;-80
2023/08/17 08:19:18;;;;;;;7.03;3.83;;;;;;;-145.69;nan;51763.19;5113358;28;20205;-83
2023/08/17 08:21:45;;;;;;;4.53;3.38;;;;;;;-145.69;nan;51751.31;5112689;28;20189;-82
2023/08/17 08:24:11;;;;;;;6.82;4.00;;;;;;;-145.69;nan;51763.19;5113196;28;20679;-83
2023/08/17 08:26:38;;;;;;;4.80;3.75;;;;;;;-145.69;nan;51761.22;5112480;28;20284;-82
2023/08/17 08:29:04;;;;;;;4.80;3.50;;;;;;;-145.69;nan;51763.19;5113310;28;20205;-80
2023/08/17 08:31:32;;;;;;;10.50;6.35;;;;;;;-145.69;nan;51771.09;5112332;28;20194;-80
2023/08/17 08:34:02;;;;;;;11.50;6.32;;;;;;;-145.69;nan;51755.25;5113160;28;20648;-80
2023/08/17 08:36:34;;;;;;;5.43;4.15;;;;;;;-145.69;nan;51749.31;5113023;28;20229;-80
2023/08/17 08:39:00;;;;;;;5.10;3.97;;;;;;;-145.69;nan;51755.25;5112845;28;20204;-80
2023/08/17 08:41:30;;;;;;;5.95;3.75;;;;;;;-145.69;nan;51783.00;5112651;28;20189;-80
2023/08/17 08:43:59;;;;;;;9.88;5.00;;;;;;;-145.69;nan;51800.81;5113056;28;20203;-80
2023/08/17 08:46:30;;;;;;;13.20;4.05;;;;;;;-145.69;nan;51755.25;5113231;28;20201;-80
2023/08/17 08:49:03;;;;;;;9.05;4.43;;;;;;;-145.69;nan;51781.00;5113037;28;20644;-80
2023/08/17 08:51:33;;;;;;;6.22;4.22;;;;;;;-145.69;nan;51771.09;5112305;28;20190;-80
2023/08/17 08:54:03;;;;;;;5.43;3.85;;;;;;;-145.69;nan;51751.31;5112864;28;20204;-80
2023/08/17 08:56:34;;;;;;;7.75;4.22;;;;;;;-145.69;nan;51719.63;5112715;28;20261;-81
2023/08/17 08:59:05;;;;;;;6.25;3.95;;;;;;;-145.69;nan;51753.28;5112756;28;20552;-80
2023/08/17 09:01:32;;;;;;;6.55;4.45;;;;;;;-145.69;nan;51751.31;5112662;28;20194;-80
2023/08/17 09:04:02;;;;;;;8.15;4.38;;;;;;;-145.69;nan;51735.47;5113762;28;20732;-80
2023/08/17 09:06:30;;;;;;;8.55;4.90;;;;;;;-145.69;nan;51727.53;5116749;28;20189;-80
2023/08/17 09:08:58;;;;;;;9.32;5.80;;;;;;;-145.69;nan;51755.25;5116763;28;20537;-80
2023/08/17 09:11:24;;;;;;;13.48;8.52;;;;;;;-145.69;nan;51735.47;5116286;28;20292;-80
2023/08/17 09:13:51;;;;;;;14.88;6.72;;;;;;;-145.69;nan;51735.47;5116472;28;20259;-81
2023/08/17 09:16:17;;;;;;;6.53;4.88;;;;;;;-145.69;nan;51753.28;5116740;28;20247;-80
2023/08/17 09:18:49;;;;;;;7.57;5.03;;;;;;;-145.69;nan;51735.47;5116544;28;20208;-80
2023/08/17 09:21:26;;;;;;;6.10;4.13;;;;;;;-145.69;nan;51743.38;5115973;28;20198;-80
2023/08/17 09:23:53;;;;;;;7.60;4.85;;;;;;;-145.69;nan;51729.53;5116815;28;20254;-84
2023/08/17 09:26:21;;;;;;;7.30;4.25;;;;;;;-145.69;nan;51729.53;5116443;28;20198;-84
2023/08/17 09:28:51;;;;;;;9.40;6.97;;;;;;;-145.69;nan;51735.47;5122912;27;20196;-79
2023/08/17 09:31:21;;;;;;;8.88;6.78;;;;;;;-145.69;nan;51705.75;5125120;27;20198;-79
2023/08/17 09:33:50;;;;;;;6.93;5.25;;;;;;;-145.69;nan;51739.44;5113241;28;20216;-80
2023/08/17 09:36:21;;;;;;;12.25;4.45;;;;;;;-145.69;nan;51703.78;5116133;28;20232;-80
2023/08/17 09:38:50;;;;;;;10.48;4.60;;;;;;;-145.69;nan;51723.59;5112714;28;20284;-79
2023/08/17 09:41:17;;;;;;;10.35;4.28;;;;;;;-145.69;nan;51695.88;5106257;28;20200;-79
2023/08/17 09:43:43;;;;;;;6.40;4.20;;;;;;;-145.69;nan;51699.81;5116162;28;20660;-80
2023/08/17 09:46:10;;;;;;;5.65;3.78;;;;;;;-145.69;nan;51695.88;5115868;28;20202;-79
2023/08/17 09:48:39;;;;;;;7.28;3.42;;;;;;;-145.69;nan;51699.81;5116048;28;20197;-79
2023/08/17 09:51:10;;;;;;;7.22;3.95;;;;;;;-145.69;nan;51699.81;5115879;28;20216;-79
2023/08/17 09:53:39;;;;;;;6.88;4.38;;;;;;;-145.69;nan;51668.16;5115488;28;20552;-79
2023/08/17 09:56:10;;;;;;;8.95;4.43;;;;;;;-145.69;nan;51672.09;5115840;28;20221;-79
2023/08/17 09:58:37;;;;;;;5.07;3.67;;;;;;;-145.69;nan;51680.03;5115584;28;20551;-79
2023/08/17 10:01:05;;;;;;;5.72;3.70;;;;;;;-145.69;nan;51674.09;5115520;28;20386;-78
2023/08/17 10:03:34;;;;;;;6.47;3.63;;;;;;;-145.69;nan;51648.34;5115711;28;20810;-78
2023/08/17 10:06:04;;;;;;;6.20;3.72;;;;;;;-145.69;nan;51685.97;5115833;28;20208;-79
2023/08/17 10:08:34;;;;;;;6.47;3.58;;;;;;;-145.69;nan;51656.25;5115649;28;20190;-79
2023/08/17 10:11:03;;;;;;;4.93;3.60;;;;;;;-145.69;nan;51660.22;5115222;28;20534;-79
2023/08/17 10:13:36;;;;;;;6.20;2.92;;;;;;;-145.69;nan;51652.31;5115360;28;20229;-79
2023/08/17 10:16:08;;;;;;;4.32;3.00;;;;;;;-145.69;nan;51682.00;5113620;28;20695;-79
2023/08/17 10:18:43;;;;;;;4.47;3.10;;;;;;;-145.69;nan;51683.97;5115291;28;20197;-78
2023/08/17 10:21:18;;;;;;;6.28;3.58;;;;;;;-145.69;nan;51662.22;5110916;28;20686;-78
2023/08/17 10:23:45;;;;;;;4.68;3.42;;;;;;;-145.69;nan;51668.16;5115273;28;20185;-78
2023/08/17 10:26:12;;;;;;;4.50;3.20;;;;;;;-145.69;nan;51674.09;5114675;28;20201;-78
2023/08/17 10:28:41;;;;;;;7.93;3.35;;;;;;;-145.69;nan;51670.13;5115027;28;20193;-78
2023/08/17 10:31:10;;;;;;;6.43;3.10;;;;;;;-145.69;nan;51640.44;5113379;28;20194;-79
2023/08/17 10:33:38;;;;;;;5.88;3.60;;;;;;;-145.69;nan;51666.16;5115062;28;20204;-78
2023/08/17 10:36:06;;;;;;;7.75;3.40;;;;;;;-145.69;nan;51670.13;5114960;28;20296;-78
2023/08/17 10:38:32;;;;;;;9.02;3.22;;;;;;;-145.69;nan;51614.69;5114110;28;20192;-78
2023/08/17 10:41:09;;;;;;;7.88;4.47;;;;;;;-145.69;nan;51640.44;5113495;28;20242;-78
2023/08/17 10:43:35;;;;;;;7.93;3.63;;;;;;;-145.69;nan;51626.56;5114555;28;20205;-80
2023/08/17 10:46:17;;;;;;;3.83;2.92;;;;;;;-145.69;nan;51618.66;5114842;28;20225;-79
2023/08/17 10:48:44;;;;;;;5.50;3.90;;;;;;;-145.69;nan;51644.38;5114971;28;20225;-79
2023/08/17 10:51:13;;;;;;;6.40;4.07;;;;;;;-145.69;nan;51622.59;5114577;28;20194;-78
2023/08/17 10:53:43;;;;;;;5.18;3.35;;;;;;;-145.69;nan;51604.78;5115024;28;20204;-79
2023/08/17 10:56:13;;;;;;;4.57;3.05;;;;;;;-145.69;nan;51618.66;5112263;28;20648;-79
2023/08/17 10:58:41;;;;;;;5.85;3.33;;;;;;;-145.69;nan;51588.94;5114452;28;20243;-78
2023/08/17 11:01:07;;;;;;;6.13;3.33;;;;;;;-145.69;nan;51588.94;5113938;28;20200;-77
2023/08/17 11:03:36;;;;;;;3.90;2.90;;;;;;;-145.69;nan;51588.94;5114246;28;20206;-78
2023/08/17 11:06:16;;;;;;;6.38;3.35;;;;;;;-145.69;nan;51541.44;5114565;28;20377;-78
2023/08/17 11:08:52;;;;;;;3.78;2.67;;;;;;;-145.69;nan;51553.31;5113638;28;20200;-78
2023/08/17 11:11:21;;;;;;;6.70;2.75;;;;;;;-145.69;nan;51537.47;5112968;28;20192;-78
2023/08/17 11:13:48;;;;;;;3.83;2.70;;;;;;;-145.69;nan;51573.09;5114000;28;20228;-84
2023/08/17 11:16:15;;;;;;;4.30;2.70;;;;;;;-145.69;nan;51547.38;5113938;28;20205;-82
2023/08/17 11:18:44;;;;;;;4.45;2.60;;;;;;;-145.69;nan;51537.47;5114409;28;20193;-80
2023/08/17 11:21:12;;;;;;;5.32;2.80;;;;;;;-145.69;nan;51515.69;5113588;28;20193;-82
2023/08/17 11:23:38;;;;;;;4.63;2.70;;;;;;;-145.69;nan;51549.34;5125382;27;20281;-83
2023/08/17 11:26:06;;;;;;;5.80;2.72;;;;;;;-145.69;nan;51584.97;5113213;28;20197;-81
2023/08/17 11:28:36;;;;;;;5.70;2.90;;;;;;;-145.69;nan;51577.06;5113289;28;20793;-80
2023/08/17 11:31:04;;;;;;;5.20;2.78;;;;;;;-145.69;nan;51545.38;5113811;28;20598;-82
2023/08/17 11:33:32;;;;;;;5.97;2.90;;;;;;;-145.69;nan;51569.16;5114411;28;20201;-82